Terminal Aerodrome Forecast
Issued by NWS

Home | Current Version | Previous Version | Text Only | Print | Product List | Glossary On
Versions: 1 2 3 4 5 6 7 8 9 10 11 12 13
000
FTUS45 KRIW 251100 RRA
TAFBPI
TAF
KBPI 251143Z 2512/2612 34006KT 6SM -SN SCT030 BKN040
     FM251500 32011KT 4SM -SN BKN024
     FM251800 32014G24KT 2SM -SN BKN014
     FM252200 33014G22KT 5SM -SN BKN030
     FM260100 34011KT P6SM SCT030 BKN050=

USA.gov is the U.S. government's official web portal to all federal, state and local government web resources and services.